createdAt,value
2023-01-17T00:01:50.289Z,90.08
2023-01-17T00:04:35.268Z,91.14
2023-01-17T00:07:20.490Z,90.77
2023-01-17T00:09:54.159Z,90.72
2023-01-17T00:12:22.098Z,90.65
2023-01-17T00:14:50.113Z,89.50
2023-01-17T00:17:18.890Z,89.57
2023-01-17T00:20:04.196Z,89.55
2023-01-17T00:23:01.546Z,90.01
2023-01-17T00:25:49.853Z,89.56
2023-01-17T00:28:16.318Z,89.34
2023-01-17T00:30:42.801Z,90.46
2023-01-17T00:33:10.544Z,89.99
2023-01-17T00:35:36.936Z,89.65
2023-01-17T00:38:06.150Z,89.21
2023-01-17T00:40:33.279Z,88.67
2023-01-17T00:43:18.379Z,89.86
2023-01-17T00:46:04.174Z,88.47
2023-01-17T00:48:50.612Z,88.92
2023-01-17T00:51:38.045Z,87.94
2023-01-17T00:54:23.952Z,88.00
2023-01-17T00:57:09.199Z,87.80
2023-01-17T00:59:54.445Z,88.56
2023-01-17T01:02:42.830Z,87.80
2023-01-17T01:05:31.055Z,87.32
2023-01-17T01:08:16.477Z,87.03
2023-01-17T01:11:02.459Z,87.09
2023-01-17T01:13:48.632Z,86.80
2023-01-17T01:16:34.501Z,86.22
2023-01-17T01:19:20.129Z,86.03
2023-01-17T01:22:06.472Z,84.96
2023-01-17T01:24:51.794Z,85.76
2023-01-17T01:27:37.127Z,86.20
2023-01-17T01:30:23.482Z,86.60
2023-01-17T01:33:08.894Z,86.09
2023-01-17T01:35:37.637Z,86.77
2023-01-17T01:38:06.445Z,86.42
2023-01-17T01:40:33.925Z,85.82
2023-01-17T01:43:05.567Z,86.47
2023-01-17T01:45:33.773Z,86.10
2023-01-17T01:48:04.865Z,86.32
2023-01-17T01:50:35.943Z,86.66
2023-01-17T01:53:07.019Z,86.90
2023-01-17T01:55:37.740Z,87.52
2023-01-17T01:58:10.888Z,87.96
2023-01-17T02:00:41.437Z,87.86
2023-01-17T02:03:12.869Z,86.56
2023-01-17T02:05:42.416Z,86.67
2023-01-17T02:08:13.718Z,86.12
2023-01-17T02:10:43.865Z,86.29
2023-01-17T02:13:13.843Z,85.43
2023-01-17T02:15:51.571Z,86.02
2023-01-17T02:18:33.168Z,86.53
2023-01-17T02:21:15.929Z,86.82
2023-01-17T02:24:15.013Z,86.52
2023-01-17T02:26:52.298Z,86.05
2023-01-17T02:29:58.327Z,86.57
2023-01-17T02:32:36.649Z,86.70
2023-01-17T02:35:10.668Z,85.64
2023-01-17T02:37:46.697Z,85.69
2023-01-17T02:40:19.865Z,84.54
2023-01-17T02:42:55.904Z,85.39
2023-01-17T02:45:23.794Z,84.60
2023-01-17T02:47:52.555Z,85.12
2023-01-17T02:50:25.096Z,84.99
2023-01-17T02:53:08.878Z,84.74
2023-01-17T02:55:49.363Z,84.83
2023-01-17T02:58:32.636Z,83.36
2023-01-17T03:01:10.935Z,84.50
2023-01-17T03:03:50.465Z,84.42
2023-01-17T03:06:21.705Z,83.24
2023-01-17T03:08:52.142Z,84.93
2023-01-17T03:11:20.261Z,83.21
2023-01-17T03:13:47.741Z,83.53
2023-01-17T03:16:19.534Z,84.20
2023-01-17T03:18:49.183Z,84.33
2023-01-17T03:21:16.735Z,84.03
2023-01-17T03:23:44.158Z,84.30
2023-01-17T03:26:11.725Z,84.18
2023-01-17T03:28:39.200Z,83.36
2023-01-17T03:31:07.279Z,84.49
2023-01-17T03:33:34.845Z,82.96
2023-01-17T03:36:04.678Z,84.25
2023-01-17T03:38:32.174Z,82.43
2023-01-17T03:40:59.678Z,83.92
2023-01-17T03:43:27.136Z,83.23
2023-01-17T03:46:03.081Z,83.94
2023-01-17T03:48:31.042Z,84.36
2023-01-17T03:50:58.538Z,83.90
2023-01-17T03:53:27.363Z,83.54
2023-01-17T03:55:54.847Z,83.91
2023-01-17T03:58:22.293Z,82.75
2023-01-17T04:00:49.754Z,83.62
2023-01-17T04:03:17.222Z,82.77
2023-01-17T04:05:47.095Z,84.03
2023-01-17T04:08:14.543Z,82.77
2023-01-17T04:10:43.482Z,83.12
2023-01-17T04:13:10.925Z,83.33
2023-01-17T04:15:38.483Z,83.04
2023-01-17T04:18:07.475Z,82.88
2023-01-17T04:20:36.183Z,83.70
2023-01-17T04:23:03.855Z,84.07
2023-01-17T04:25:31.545Z,82.97
2023-01-17T04:28:02.162Z,85.13
2023-01-17T04:30:30.114Z,84.01
2023-01-17T04:32:58.097Z,83.44
2023-01-17T04:35:25.975Z,84.54
2023-01-17T04:37:53.765Z,84.67
2023-01-17T04:40:21.222Z,84.87
2023-01-17T04:42:49.090Z,85.45
2023-01-17T04:45:19.699Z,85.20
2023-01-17T04:47:47.157Z,84.26
2023-01-17T04:50:14.607Z,82.77
2023-01-17T04:52:45.149Z,83.73
2023-01-17T04:55:12.601Z,83.65
2023-01-17T04:57:40.071Z,84.50
2023-01-17T05:00:08.971Z,85.13
2023-01-17T05:02:37.794Z,83.94
2023-01-17T05:05:06.238Z,84.02
2023-01-17T05:07:35.687Z,84.54
2023-01-17T05:10:04.384Z,83.51
2023-01-17T05:12:31.844Z,83.79
2023-01-17T05:14:59.265Z,83.73
2023-01-17T05:17:26.750Z,83.78
2023-01-17T05:19:55.522Z,85.11
2023-01-17T05:22:23.005Z,85.15
2023-01-17T05:24:50.452Z,84.06
2023-01-17T05:27:17.922Z,84.18
2023-01-17T05:29:45.389Z,85.41
2023-01-17T05:32:12.851Z,84.42
2023-01-17T05:34:43.253Z,85.79
2023-01-17T05:37:12.007Z,85.44
2023-01-17T05:39:39.468Z,85.19
2023-01-17T05:42:07.012Z,85.26
2023-01-17T05:44:34.454Z,85.07
2023-01-17T05:47:01.873Z,85.55
2023-01-17T05:49:29.397Z,83.42
2023-01-17T05:51:57.902Z,83.76
2023-01-17T05:54:26.685Z,83.12
2023-01-17T05:56:54.253Z,85.02
2023-01-17T05:59:35.922Z,84.02
2023-01-17T06:02:04.206Z,84.02
2023-01-17T06:04:31.819Z,84.14
2023-01-17T06:06:59.292Z,83.64
2023-01-17T06:09:28.088Z,84.95
2023-01-17T06:11:55.508Z,86.78
2023-01-17T06:14:23.002Z,89.77
2023-01-17T06:16:50.445Z,90.59
2023-01-17T06:19:17.898Z,91.82
2023-01-17T06:21:45.334Z,91.46
2023-01-17T06:24:13.027Z,91.03
2023-01-17T06:26:44.280Z,90.09
2023-01-17T06:29:12.116Z,88.83
2023-01-17T06:31:39.660Z,89.04
2023-01-17T06:34:07.131Z,88.50
2023-01-17T06:36:34.747Z,87.55
2023-01-17T06:39:02.198Z,88.69
2023-01-17T06:41:29.795Z,86.77
2023-01-17T06:43:58.633Z,85.23
2023-01-17T06:46:26.096Z,86.37
2023-01-17T06:48:53.578Z,85.34
2023-01-17T06:51:21.216Z,84.94
2023-01-17T06:53:48.997Z,84.76
2023-01-17T06:56:16.544Z,84.95
2023-01-17T06:58:43.987Z,83.71
2023-01-17T07:01:14.162Z,83.07
2023-01-17T07:03:41.882Z,84.17
2023-01-17T07:06:09.994Z,82.88
2023-01-17T07:08:37.668Z,83.09
2023-01-17T07:11:08.489Z,83.74
2023-01-17T07:13:36.798Z,83.67
2023-01-17T07:16:05.146Z,82.28
2023-01-17T07:18:35.434Z,82.90
2023-01-17T07:21:02.870Z,83.90
2023-01-17T07:23:30.335Z,83.04
2023-01-17T07:26:00.044Z,82.68
2023-01-17T07:28:29.105Z,83.67
2023-01-17T07:30:57.245Z,83.50
2023-01-17T07:33:24.845Z,84.03
2023-01-17T07:35:53.656Z,83.02
2023-01-17T07:38:21.304Z,84.05
2023-01-17T07:40:48.838Z,82.57
2023-01-17T07:43:16.797Z,86.06
2023-01-17T07:45:45.573Z,83.91
2023-01-17T07:48:13.471Z,83.53
2023-01-17T07:50:40.937Z,84.00
2023-01-17T07:53:10.768Z,83.58
2023-01-17T07:55:38.479Z,83.75
2023-01-17T07:58:05.917Z,83.53
2023-01-17T08:00:33.476Z,83.13
2023-01-17T08:03:02.019Z,83.25
2023-01-17T08:05:30.579Z,82.37
2023-01-17T08:07:58.043Z,83.71
2023-01-17T08:10:26.957Z,84.52
2023-01-17T08:12:55.272Z,83.65
2023-01-17T08:15:23.466Z,84.19
2023-01-17T08:17:53.074Z,82.55
2023-01-17T08:20:22.170Z,82.77
2023-01-17T08:22:49.500Z,83.74
2023-01-17T08:25:17.037Z,84.19
2023-01-17T08:27:45.826Z,84.05
2023-01-17T08:30:13.632Z,83.99
2023-01-17T08:32:41.394Z,84.33
2023-01-17T08:35:09.781Z,84.87
2023-01-17T08:37:38.310Z,84.73
2023-01-17T08:40:07.112Z,84.59
2023-01-17T08:42:39.148Z,84.12
2023-01-17T08:45:11.225Z,84.84
2023-01-17T08:47:39.416Z,84.76
2023-01-17T08:50:07.610Z,84.32
2023-01-17T08:52:35.962Z,85.40
2023-01-17T08:55:05.738Z,85.95
2023-01-17T08:57:33.362Z,85.18
2023-01-17T09:00:00.802Z,84.35
2023-01-17T09:02:29.657Z,84.54
2023-01-17T09:04:57.141Z,84.82
2023-01-17T09:07:26.809Z,86.27
2023-01-17T09:09:54.509Z,85.82
2023-01-17T09:12:22.471Z,84.22
2023-01-17T09:14:49.948Z,84.79
2023-01-17T09:17:17.399Z,84.65
2023-01-17T09:19:48.543Z,84.51
2023-01-17T09:22:16.373Z,85.08
2023-01-17T09:24:43.808Z,84.91
2023-01-17T09:27:11.290Z,84.51
2023-01-17T09:29:38.743Z,83.01
2023-01-17T09:32:06.622Z,84.43
2023-01-17T09:34:36.451Z,84.09
2023-01-17T09:37:05.234Z,84.16
2023-01-17T09:39:32.663Z,84.37
2023-01-17T09:42:04.100Z,83.23
2023-01-17T09:44:42.844Z,82.57
2023-01-17T09:47:19.205Z,83.13
2023-01-17T09:49:48.205Z,82.46
2023-01-17T09:52:19.584Z,83.27
2023-01-17T09:54:48.837Z,83.56
2023-01-17T09:57:34.581Z,83.40
2023-01-17T10:00:12.718Z,82.96
2023-01-17T10:02:52.171Z,83.45
2023-01-17T10:05:31.871Z,83.51
2023-01-17T10:08:15.671Z,82.93
2023-01-17T10:10:48.531Z,82.05
2023-01-17T10:13:37.680Z,83.98
2023-01-17T10:16:29.249Z,83.20
2023-01-17T10:19:10.321Z,81.90
2023-01-17T10:21:58.950Z,82.77
2023-01-17T10:24:58.111Z,82.56
2023-01-17T10:27:30.005Z,81.68
2023-01-17T10:29:57.493Z,81.88
2023-01-17T10:32:33.206Z,82.71
2023-01-17T10:35:04.326Z,82.20
2023-01-17T10:37:41.209Z,81.97
2023-01-17T10:40:20.794Z,80.40
2023-01-17T10:42:53.067Z,80.01
2023-01-17T10:45:25.590Z,78.30
2023-01-17T10:48:03.676Z,78.24
2023-01-17T10:50:40.076Z,78.02
2023-01-17T10:53:11.623Z,75.77
2023-01-17T10:55:50.452Z,77.65
2023-01-17T10:58:18.017Z,77.32
2023-01-17T11:00:50.946Z,78.55
2023-01-17T11:03:20.660Z,77.42
2023-01-17T11:06:16.416Z,76.09
2023-01-17T11:08:51.978Z,75.60
2023-01-17T11:11:22.073Z,75.73
2023-01-17T11:13:51.336Z,72.60
2023-01-17T11:16:22.064Z,72.34
2023-01-17T11:19:06.324Z,71.91
2023-01-17T11:21:34.243Z,72.02
2023-01-17T11:24:11.148Z,73.85
2023-01-17T11:26:48.437Z,73.18
2023-01-17T11:29:26.527Z,74.15
2023-01-17T11:31:54.147Z,71.92
2023-01-17T11:34:24.926Z,72.88
2023-01-17T11:37:15.649Z,70.75
2023-01-17T11:39:44.444Z,69.00
2023-01-17T11:42:34.897Z,70.92
2023-01-17T11:45:33.450Z,72.16
2023-01-17T11:48:16.424Z,70.33
2023-01-17T11:50:48.003Z,66.75
2023-01-17T11:53:22.285Z,68.62
2023-01-17T11:55:54.813Z,68.17
2023-01-17T11:58:24.494Z,68.46
2023-01-17T12:00:59.559Z,68.14
2023-01-17T12:03:42.741Z,67.81
2023-01-17T12:06:17.854Z,67.14
2023-01-17T12:08:58.528Z,66.28
2023-01-17T12:11:35.957Z,67.30
2023-01-17T12:14:15.703Z,67.55
2023-01-17T12:16:57.001Z,67.97
2023-01-17T12:19:32.201Z,67.01
2023-01-17T12:22:12.282Z,63.30
2023-01-17T12:24:58.279Z,59.32
2023-01-17T12:27:34.734Z,63.94
2023-01-17T12:30:22.187Z,66.79
2023-01-17T12:32:59.837Z,70.38
2023-01-17T12:35:32.708Z,64.72
2023-01-17T12:38:06.709Z,63.25
2023-01-17T12:40:42.705Z,65.91
2023-01-17T12:43:19.484Z,66.25
2023-01-17T12:45:50.327Z,62.67
2023-01-17T12:48:19.553Z,61.46
2023-01-17T12:50:53.695Z,58.06
2023-01-17T12:53:31.284Z,59.09
2023-01-17T12:56:02.904Z,63.50
2023-01-17T12:58:37.706Z,62.27
2023-01-17T13:01:14.365Z,61.97
2023-01-17T13:03:49.737Z,61.73
2023-01-17T13:06:36.839Z,59.39
2023-01-17T13:09:06.322Z,63.59
2023-01-17T13:11:43.722Z,61.68
2023-01-17T13:14:11.684Z,58.42
2023-01-17T13:16:45.218Z,56.34
2023-01-17T13:19:21.266Z,63.81
2023-01-17T13:21:50.451Z,64.83
2023-01-17T13:24:31.574Z,66.35
2023-01-17T13:27:21.112Z,65.67
2023-01-17T13:30:04.876Z,65.27
2023-01-17T13:32:52.419Z,59.86
2023-01-17T13:35:28.861Z,65.08
2023-01-17T13:38:21.548Z,62.48
2023-01-17T13:40:54.428Z,60.25
2023-01-17T13:43:25.610Z,59.43
2023-01-17T13:45:55.729Z,59.51
2023-01-17T13:48:34.511Z,60.99
2023-01-17T13:51:03.647Z,62.29
2023-01-17T13:53:49.068Z,64.08
2023-01-17T13:56:34.339Z,58.96
2023-01-17T13:59:32.738Z,61.75
2023-01-17T14:02:00.341Z,63.81
2023-01-17T14:05:01.373Z,64.16
2023-01-17T14:07:30.119Z,63.37
2023-01-17T14:09:58.178Z,63.97
2023-01-17T14:12:31.344Z,65.70
2023-01-17T14:15:03.594Z,66.68
2023-01-17T14:17:49.279Z,65.31
2023-01-17T14:21:05.244Z,66.48
2023-01-17T14:23:49.668Z,67.43
2023-01-17T14:29:45.574Z,66.59
2023-01-17T14:32:16.887Z,68.32
2023-01-17T14:34:46.304Z,67.09
2023-01-17T14:37:40.211Z,67.41
2023-01-17T14:40:20.989Z,66.13
2023-01-17T14:42:54.626Z,70.28
2023-01-17T14:45:27.834Z,67.98
2023-01-17T14:47:58.297Z,71.74
2023-01-17T14:50:29.159Z,71.36
2023-01-17T14:53:17.426Z,71.77
2023-01-17T14:55:56.429Z,70.17
2023-01-17T14:58:26.676Z,72.18
2023-01-17T15:00:58.292Z,71.69
2023-01-17T15:03:27.942Z,73.06
2023-01-17T15:05:57.476Z,69.87
2023-01-17T15:08:33.044Z,73.51
2023-01-17T15:11:05.162Z,74.19
2023-01-17T15:13:44.327Z,72.17
2023-01-17T15:16:20.190Z,68.26
2023-01-17T15:18:49.535Z,72.25
2023-01-17T15:21:20.352Z,69.48
2023-01-17T15:23:49.805Z,72.22
2023-01-17T15:26:24.571Z,72.87
2023-01-17T15:28:52.924Z,72.80
2023-01-17T15:31:24.371Z,72.59
2023-01-17T15:33:57.124Z,72.50
2023-01-17T15:36:30.020Z,73.75
2023-01-17T15:39:00.085Z,72.61
2023-01-17T15:41:30.821Z,73.52
2023-01-17T15:43:58.784Z,73.69
2023-01-17T15:46:31.668Z,73.09
2023-01-17T15:49:18.055Z,74.01
2023-01-17T15:51:49.701Z,75.19
2023-01-17T15:54:33.931Z,75.38
2023-01-17T15:57:18.462Z,73.38
2023-01-17T15:59:48.758Z,72.86
2023-01-17T16:02:35.046Z,74.34
2023-01-17T16:05:21.133Z,75.17
2023-01-17T16:07:49.861Z,73.96
2023-01-17T16:10:18.587Z,74.29
2023-01-17T16:12:47.000Z,72.97
2023-01-17T16:15:17.549Z,75.68
2023-01-17T16:17:49.434Z,75.46
2023-01-17T16:20:22.190Z,73.81
2023-01-17T16:22:50.917Z,75.60
2023-01-17T16:25:20.472Z,74.10
2023-01-17T16:27:48.798Z,74.90
2023-01-17T16:30:18.798Z,75.81
2023-01-17T16:32:49.331Z,74.03
2023-01-17T16:35:20.629Z,75.88
2023-01-17T16:37:50.486Z,74.80
2023-01-17T16:40:18.893Z,75.01
2023-01-17T16:42:47.079Z,75.96
2023-01-17T16:45:15.092Z,75.32
2023-01-17T16:47:43.678Z,75.45
2023-01-17T16:50:13.048Z,76.57
2023-01-17T16:52:43.433Z,76.88
2023-01-17T16:55:13.806Z,76.82
2023-01-17T16:57:41.700Z,76.46
2023-01-17T17:00:12.238Z,77.94
2023-01-17T17:02:40.720Z,76.89
2023-01-17T17:05:10.395Z,75.52
2023-01-17T17:07:44.128Z,75.55
2023-01-17T17:10:14.931Z,76.33
2023-01-17T17:12:42.605Z,75.58
2023-01-17T17:15:11.457Z,75.80
2023-01-17T17:17:41.356Z,76.98
2023-01-17T17:20:10.955Z,76.63
2023-01-17T17:22:38.679Z,76.20
2023-01-17T17:25:09.162Z,76.26
2023-01-17T17:27:38.229Z,76.13
2023-01-17T17:30:06.125Z,76.30
2023-01-17T17:32:33.635Z,76.57
2023-01-17T17:35:01.185Z,76.53
2023-01-17T17:37:28.987Z,75.23
2023-01-17T17:39:56.585Z,76.26
2023-01-17T17:42:24.134Z,75.81
2023-01-17T17:44:53.511Z,76.47
2023-01-17T17:47:21.071Z,75.47
2023-01-17T17:49:48.555Z,75.47
2023-01-17T17:52:16.102Z,75.38
2023-01-17T17:54:43.607Z,75.66
2023-01-17T17:57:11.121Z,76.65
2023-01-17T17:59:38.653Z,77.63
2023-01-17T18:02:10.731Z,75.89
2023-01-17T18:04:38.685Z,76.84
2023-01-17T18:07:06.218Z,76.24
2023-01-17T18:09:33.653Z,75.21
2023-01-17T18:12:02.752Z,77.28
2023-01-17T18:14:30.130Z,76.98
2023-01-17T18:16:57.615Z,77.08
2023-01-17T18:19:27.284Z,76.35
2023-01-17T18:21:54.968Z,75.21
2023-01-17T18:24:24.182Z,75.57
2023-01-17T18:26:53.259Z,76.62
2023-01-17T18:29:21.571Z,75.37
2023-01-17T18:31:50.877Z,76.03
2023-01-17T18:34:21.093Z,76.17
2023-01-17T18:36:50.436Z,76.08
2023-01-17T18:39:20.308Z,75.71
2023-01-17T18:41:49.361Z,76.33
2023-01-17T18:44:17.058Z,77.18
2023-01-17T18:46:44.501Z,77.64
2023-01-17T18:49:14.677Z,77.26
2023-01-17T18:51:46.400Z,78.14
2023-01-17T18:54:15.345Z,77.56
2023-01-17T18:56:43.300Z,76.61
2023-01-17T18:59:15.922Z,76.89
2023-01-17T19:01:43.615Z,77.30
2023-01-17T19:04:12.413Z,77.31
2023-01-17T19:06:42.154Z,75.85
2023-01-17T19:09:11.673Z,76.26
2023-01-17T19:11:42.921Z,76.74
2023-01-17T19:14:11.933Z,75.52
2023-01-17T19:16:40.923Z,77.40
2023-01-17T19:19:10.922Z,76.68
2023-01-17T19:21:38.827Z,76.23
2023-01-17T19:24:06.877Z,76.86
2023-01-17T19:26:34.358Z,77.63
2023-01-17T19:29:05.100Z,78.39
2023-01-17T19:31:37.079Z,76.85
2023-01-17T19:34:04.740Z,77.70
2023-01-17T19:36:35.451Z,77.77
2023-01-17T19:39:06.258Z,78.22
2023-01-17T19:41:35.753Z,76.71
2023-01-17T19:44:06.104Z,77.77
2023-01-17T19:46:35.095Z,77.46
2023-01-17T19:49:03.401Z,77.02
2023-01-17T19:51:31.066Z,77.21
2023-01-17T19:54:01.030Z,78.20
2023-01-17T19:56:29.866Z,78.26
2023-01-17T19:59:00.776Z,76.71
2023-01-17T20:01:32.495Z,76.73
2023-01-17T20:04:01.130Z,77.23
2023-01-17T20:06:30.487Z,78.39
2023-01-17T20:08:58.661Z,77.79
2023-01-17T20:11:27.731Z,79.81
2023-01-17T20:13:55.949Z,77.69
2023-01-17T20:16:24.997Z,77.15
2023-01-17T20:18:53.817Z,78.24
2023-01-17T20:21:23.415Z,77.65
2023-01-17T20:23:52.316Z,77.47
2023-01-17T20:26:22.088Z,78.46
2023-01-17T20:28:51.808Z,76.00
2023-01-17T20:31:21.308Z,77.31
2023-01-17T20:33:50.448Z,77.76
2023-01-17T20:36:20.109Z,79.83
2023-01-17T20:38:48.599Z,78.22
2023-01-17T20:41:17.642Z,77.70
2023-01-17T20:43:47.447Z,75.78
2023-01-17T20:46:17.619Z,76.61
2023-01-17T20:48:46.376Z,78.29
2023-01-17T20:51:14.601Z,79.80
2023-01-17T20:53:44.958Z,79.21
2023-01-17T20:56:14.907Z,78.70
2023-01-17T20:58:42.459Z,79.54
2023-01-17T21:01:11.202Z,77.57
2023-01-17T21:03:39.929Z,79.10
2023-01-17T21:06:09.295Z,78.84
2023-01-17T21:08:38.384Z,78.54
2023-01-17T21:11:07.878Z,78.12
2023-01-17T21:13:35.570Z,79.52
2023-01-17T21:16:03.613Z,79.97
2023-01-17T21:18:32.094Z,80.04
2023-01-17T21:21:03.510Z,80.74
2023-01-17T21:23:30.982Z,80.06
2023-01-17T21:25:58.924Z,81.22
2023-01-17T21:28:31.963Z,81.75
2023-01-17T21:31:20.358Z,81.90
2023-01-17T21:33:48.599Z,80.50
2023-01-17T21:36:16.282Z,80.94
2023-01-17T21:38:45.280Z,82.11
2023-01-17T21:41:12.710Z,80.04
2023-01-17T21:43:41.793Z,81.34
2023-01-17T21:46:09.084Z,80.68
2023-01-17T21:48:36.571Z,80.19
2023-01-17T21:51:05.791Z,79.92
2023-01-17T21:53:35.326Z,81.28
2023-01-17T21:56:21.293Z,80.89
2023-01-17T21:58:53.812Z,80.76
2023-01-17T22:01:22.774Z,80.82
2023-01-17T22:03:51.220Z,79.24
2023-01-17T22:06:19.080Z,79.67
2023-01-17T22:08:46.750Z,79.38
2023-01-17T22:11:16.726Z,79.44
2023-01-17T22:13:45.355Z,78.40
2023-01-17T22:16:16.097Z,79.33
2023-01-17T22:18:44.734Z,79.06
2023-01-17T22:21:14.322Z,79.18
2023-01-17T22:23:46.101Z,78.87
2023-01-17T22:26:13.587Z,79.77
2023-01-17T22:28:41.770Z,78.68
2023-01-17T22:31:12.107Z,79.35
2023-01-17T22:33:42.567Z,80.61
2023-01-17T22:36:13.566Z,79.44
2023-01-17T22:38:41.568Z,79.82
2023-01-17T22:41:10.455Z,79.21
2023-01-17T22:43:40.334Z,80.04
2023-01-17T22:46:09.807Z,82.50
2023-01-17T22:48:38.420Z,83.79
2023-01-17T22:51:09.048Z,83.85
2023-01-17T22:53:41.108Z,84.21
2023-01-17T22:56:12.006Z,81.83
2023-01-17T22:58:44.383Z,82.31
2023-01-17T23:01:14.194Z,81.01
2023-01-17T23:03:42.612Z,83.96
2023-01-17T23:06:14.464Z,84.97
2023-01-17T23:08:43.558Z,85.32
2023-01-17T23:11:40.479Z,86.09
2023-01-17T23:14:10.230Z,84.34
2023-01-17T23:16:55.711Z,86.14
2023-01-17T23:19:23.644Z,85.41
2023-01-17T23:22:14.501Z,84.89
2023-01-17T23:24:43.898Z,87.06
2023-01-17T23:27:30.664Z,88.11
2023-01-17T23:29:58.147Z,84.69
2023-01-17T23:32:26.151Z,84.74
2023-01-17T23:34:53.865Z,92.83
2023-01-17T23:37:43.036Z,93.22
2023-01-17T23:40:12.207Z,87.53
2023-01-17T23:42:57.872Z,86.83
2023-01-17T23:45:25.657Z,87.15
2023-01-17T23:47:53.129Z,88.45
2023-01-17T23:50:20.588Z,94.05
2023-01-17T23:52:49.728Z,91.33
2023-01-17T23:55:17.928Z,87.34
2023-01-17T23:57:45.608Z,87.43
